createdAt,value
2023-05-22T00:01:43.578Z,14.40
2023-05-22T00:06:00.880Z,14.40
2023-05-22T00:10:18.369Z,13.88
2023-05-22T00:14:35.810Z,13.55
2023-05-22T00:18:53.378Z,12.70
2023-05-22T00:23:12.186Z,12.05
2023-05-22T00:27:30.580Z,12.45
2023-05-22T00:31:48.204Z,11.63
2023-05-22T00:36:06.177Z,12.68
2023-05-22T00:40:23.594Z,13.00
2023-05-22T00:44:41.987Z,12.88
2023-05-22T00:48:59.390Z,12.82
2023-05-22T00:53:19.647Z,12.68
2023-05-22T00:57:40.312Z,13.05
2023-05-22T01:01:58.407Z,13.18
2023-05-22T01:06:18.711Z,14.27
2023-05-22T01:10:38.734Z,13.38
2023-05-22T01:15:06.138Z,13.40
2023-05-22T01:19:42.267Z,13.90
2023-05-22T01:24:31.208Z,13.90
2023-05-22T01:29:26.225Z,14.05
2023-05-22T01:33:51.705Z,13.90
2023-05-22T01:38:11.071Z,13.52
2023-05-22T01:42:28.598Z,14.73
2023-05-22T01:46:46.169Z,14.48
2023-05-22T01:51:12.034Z,15.25
2023-05-22T01:55:36.389Z,15.02
2023-05-22T01:59:59.797Z,15.18
2023-05-22T02:04:19.952Z,14.48
2023-05-22T02:08:39.833Z,13.98
2023-05-22T02:12:57.589Z,14.20
2023-05-22T02:17:14.919Z,14.70
2023-05-22T02:21:35.751Z,14.43
2023-05-22T02:25:53.377Z,15.23
2023-05-22T02:30:11.969Z,14.05
2023-05-22T02:34:29.792Z,14.52
2023-05-22T02:38:47.411Z,16.52
2023-05-22T02:43:04.827Z,16.20
2023-05-22T02:47:23.709Z,16.08
2023-05-22T02:55:59.032Z,15.13
2023-05-22T03:00:17.029Z,15.97
2023-05-22T03:04:38.321Z,16.57
2023-05-22T03:08:55.792Z,16.48
2023-05-22T03:13:13.066Z,16.70
2023-05-22T03:17:30.531Z,16.98
2023-05-22T03:21:50.128Z,16.08
2023-05-22T03:26:07.589Z,16.83
2023-05-22T03:30:24.866Z,16.83
2023-05-22T03:34:42.180Z,16.30
2023-05-22T03:38:59.746Z,16.58
2023-05-22T03:43:17.192Z,16.77
2023-05-22T03:47:34.750Z,17.38
2023-05-22T03:51:51.969Z,18.58
2023-05-22T03:56:09.222Z,17.42
2023-05-22T04:00:27.187Z,17.25
2023-05-22T04:04:46.263Z,17.20
2023-05-22T04:09:04.583Z,17.90
2023-05-22T04:13:21.918Z,17.70
2023-05-22T04:17:41.636Z,17.08
2023-05-22T04:21:59.536Z,18.58
2023-05-22T04:26:18.169Z,17.88
2023-05-22T04:30:37.637Z,18.30
2023-05-22T04:34:58.547Z,17.70
2023-05-22T04:39:15.834Z,17.65
2023-05-22T04:43:33.800Z,17.58
2023-05-22T04:47:53.258Z,17.03
2023-05-22T04:52:11.696Z,16.13
2023-05-22T04:56:36.378Z,15.98
2023-05-22T05:00:55.055Z,15.02
2023-05-22T05:05:12.355Z,16.05
2023-05-22T05:09:29.704Z,16.38
2023-05-22T05:13:46.961Z,15.55
2023-05-22T05:18:04.657Z,18.38
2023-05-22T05:22:22.076Z,18.98
2023-05-22T05:26:42.053Z,19.58
2023-05-22T05:30:59.421Z,17.88
2023-05-22T05:35:17.044Z,18.88
2023-05-22T05:39:34.675Z,18.95
2023-05-22T05:43:52.572Z,19.27
2023-05-22T05:48:10.187Z,19.02
2023-05-22T05:52:32.524Z,16.08
2023-05-22T05:56:49.913Z,15.00
2023-05-22T06:01:07.348Z,14.27
2023-05-22T06:05:25.040Z,13.73
2023-05-22T06:09:42.731Z,12.50
2023-05-22T06:14:01.415Z,12.00
2023-05-22T06:18:18.678Z,10.95
2023-05-22T06:22:36.095Z,11.57
2023-05-22T06:26:53.385Z,11.45
2023-05-22T06:31:11.003Z,10.63
2023-05-22T06:35:28.988Z,10.40
2023-05-22T06:39:46.318Z,9.73
2023-05-22T06:44:03.829Z,9.98
2023-05-22T06:48:21.101Z,11.30
2023-05-22T06:52:39.144Z,10.73
2023-05-22T06:56:57.224Z,10.47
2023-05-22T07:01:14.726Z,9.93
2023-05-22T07:05:32.042Z,9.13
2023-05-22T07:09:49.288Z,9.52
2023-05-22T07:14:08.212Z,9.98
2023-05-22T07:18:25.769Z,8.65
2023-05-22T07:22:43.106Z,8.90
2023-05-22T07:27:00.665Z,8.50
2023-05-22T07:31:17.852Z,8.30
2023-05-22T07:35:35.474Z,7.72
2023-05-22T07:39:52.879Z,7.47
2023-05-22T07:44:10.361Z,8.05
2023-05-22T07:48:27.687Z,7.22
2023-05-22T07:52:45.220Z,7.10
2023-05-22T07:57:03.674Z,7.35
2023-05-22T08:01:21.765Z,7.13
2023-05-22T08:05:38.951Z,6.97
2023-05-22T08:09:56.436Z,6.70
2023-05-22T08:14:14.034Z,7.22
2023-05-22T08:18:31.391Z,7.70
2023-05-22T08:22:48.801Z,6.75
2023-05-22T08:27:06.394Z,7.13
2023-05-22T08:31:23.815Z,6.73
2023-05-22T08:35:41.313Z,6.47
2023-05-22T08:39:58.750Z,6.10
2023-05-22T08:44:16.313Z,6.10
2023-05-22T08:48:33.672Z,6.47
2023-05-22T08:52:52.589Z,6.57
2023-05-22T08:57:10.727Z,6.20
2023-05-22T09:01:35.771Z,6.20
2023-05-22T09:05:53.260Z,6.68
2023-05-22T09:10:10.826Z,6.03
2023-05-22T09:14:28.222Z,6.00
2023-05-22T09:18:46.536Z,6.03
2023-05-22T09:27:28.312Z,6.15
2023-05-22T09:31:45.852Z,5.43
2023-05-22T09:36:04.858Z,6.73
2023-05-22T09:40:22.213Z,6.00
2023-05-22T09:44:39.999Z,6.30
2023-05-22T09:48:57.367Z,6.30
2023-05-22T09:53:16.913Z,6.13
2023-05-22T09:57:42.988Z,6.70
2023-05-22T10:02:02.265Z,5.53
2023-05-22T10:06:22.657Z,5.68
2023-05-22T10:10:42.769Z,5.90
2023-05-22T10:15:02.969Z,5.72
2023-05-22T10:19:21.514Z,5.57
2023-05-22T10:23:41.067Z,5.65
2023-05-22T10:28:00.448Z,5.10
2023-05-22T10:32:44.181Z,5.20
2023-05-22T10:37:30.512Z,4.93
2023-05-22T10:41:48.300Z,4.85
2023-05-22T10:46:07.410Z,4.50
2023-05-22T10:50:25.025Z,4.90
2023-05-22T10:54:46.343Z,4.40
2023-05-22T10:59:06.008Z,4.28
2023-05-22T11:03:23.699Z,4.63
2023-05-22T11:07:41.567Z,4.35
2023-05-22T11:12:17.827Z,4.25
2023-05-22T11:16:37.832Z,4.25
2023-05-22T11:20:55.974Z,4.90
2023-05-22T11:29:35.583Z,4.55
2023-05-22T11:33:53.772Z,4.95
2023-05-22T11:38:11.849Z,4.60
2023-05-22T11:46:46.919Z,4.40
2023-05-22T11:51:05.053Z,4.45
2023-05-22T11:59:40.480Z,4.40
2023-05-22T12:03:57.940Z,4.68
2023-05-22T12:08:15.338Z,4.83
2023-05-22T12:12:32.608Z,4.75
2023-05-22T12:16:52.534Z,5.05
2023-05-22T12:21:11.271Z,4.60
2023-05-22T12:25:37.265Z,4.50
2023-05-22T12:29:56.516Z,4.38
2023-05-22T12:34:16.164Z,4.80
2023-05-22T12:38:35.608Z,4.63
2023-05-22T12:42:54.640Z,4.45
2023-05-22T12:47:12.301Z,4.15
2023-05-22T12:51:31.730Z,4.18
2023-05-22T12:55:49.276Z,4.25
2023-05-22T13:00:07.323Z,3.93
2023-05-22T13:04:24.655Z,4.50
2023-05-22T13:08:42.107Z,4.13
2023-05-22T13:12:59.430Z,4.17
2023-05-22T13:17:16.889Z,4.10
2023-05-22T13:21:34.318Z,4.27
2023-05-22T13:25:51.658Z,4.07
2023-05-22T13:30:09.314Z,4.63
2023-05-22T13:34:29.568Z,4.18
2023-05-22T13:38:47.390Z,4.30
2023-05-22T13:43:04.956Z,4.47
2023-05-22T13:47:23.557Z,4.57
2023-05-22T13:51:41.323Z,4.60
2023-05-22T13:55:58.758Z,4.60
2023-05-22T14:00:16.686Z,4.57
2023-05-22T14:04:34.684Z,4.10
2023-05-22T14:08:52.008Z,4.15
2023-05-22T14:13:09.256Z,4.30
2023-05-22T14:17:28.791Z,4.57
2023-05-22T14:21:49.164Z,4.25
2023-05-22T14:26:06.592Z,4.20
2023-05-22T14:30:24.504Z,4.75
2023-05-22T14:34:42.092Z,4.30
2023-05-22T14:39:02.857Z,4.65
2023-05-22T14:43:20.130Z,4.35
2023-05-22T14:47:37.572Z,4.40
2023-05-22T14:51:57.383Z,4.28
2023-05-22T14:56:14.646Z,4.57
2023-05-22T15:00:32.185Z,4.60
2023-05-22T15:04:49.735Z,4.40
2023-05-22T15:09:07.351Z,4.27
2023-05-22T15:13:27.085Z,5.07
2023-05-22T15:17:44.388Z,5.03
2023-05-22T15:22:15.731Z,4.63
2023-05-22T15:26:36.508Z,4.50
2023-05-22T15:30:53.799Z,4.60
2023-05-22T15:35:13.886Z,4.60
2023-05-22T15:39:31.509Z,4.75
2023-05-22T15:43:55.318Z,4.97
2023-05-22T15:48:13.742Z,5.03
2023-05-22T15:52:31.222Z,4.30
2023-05-22T15:56:49.360Z,4.93
2023-05-22T16:01:07.925Z,4.50
2023-05-22T16:05:25.279Z,4.40
2023-05-22T16:09:43.871Z,4.97
2023-05-22T16:14:01.323Z,4.45
2023-05-22T16:18:20.961Z,4.53
2023-05-22T16:22:48.277Z,4.45
2023-05-22T16:27:06.426Z,4.80
2023-05-22T16:31:23.759Z,4.90
2023-05-22T16:35:41.418Z,4.60
2023-05-22T16:39:58.912Z,4.55
2023-05-22T16:44:16.135Z,4.85
2023-05-22T16:48:33.591Z,4.82
2023-05-22T16:52:50.954Z,4.60
2023-05-22T16:57:08.149Z,4.60
2023-05-22T17:01:26.055Z,4.43
2023-05-22T17:05:43.601Z,5.23
2023-05-22T17:10:01.286Z,4.28
2023-05-22T17:14:21.589Z,4.43
2023-05-22T17:18:38.811Z,4.97
2023-05-22T17:22:56.395Z,4.88
2023-05-22T17:27:20.768Z,5.23
2023-05-22T17:31:49.083Z,5.15
2023-05-22T17:36:06.412Z,4.75
2023-05-22T17:40:32.514Z,4.95
2023-05-22T17:44:57.905Z,4.90
2023-05-22T17:49:15.562Z,4.78
2023-05-22T17:53:34.887Z,4.95
2023-05-22T17:57:53.832Z,4.80
2023-05-22T18:02:11.304Z,4.85
2023-05-22T18:06:29.511Z,5.32
2023-05-22T18:10:47.111Z,5.70
2023-05-22T18:15:04.844Z,4.80
2023-05-22T18:19:22.245Z,4.95
2023-05-22T18:23:39.557Z,5.03
2023-05-22T18:27:56.847Z,4.97
2023-05-22T18:32:14.166Z,4.65
2023-05-22T18:36:31.953Z,4.47
2023-05-22T18:40:49.550Z,4.57
2023-05-22T18:45:07.600Z,5.90
2023-05-22T18:49:24.958Z,7.90
2023-05-22T18:53:42.681Z,10.13
2023-05-22T18:58:00.006Z,11.95
2023-05-22T19:02:21.568Z,11.20
2023-05-22T19:06:42.246Z,10.93
2023-05-22T19:11:00.035Z,7.60
2023-05-22T19:15:17.733Z,9.00
2023-05-22T19:19:35.322Z,10.40
2023-05-22T19:23:52.839Z,17.90
2023-05-22T19:28:10.060Z,16.58
2023-05-22T19:32:27.718Z,18.20
2023-05-22T19:36:45.355Z,16.13
2023-05-22T19:41:02.551Z,11.52
2023-05-22T19:45:20.032Z,17.02
2023-05-22T19:49:39.107Z,18.55
2023-05-22T19:54:08.235Z,18.00
2023-05-22T19:58:28.627Z,17.55
2023-05-22T20:02:47.981Z,15.10
2023-05-22T20:07:05.800Z,17.27
2023-05-22T20:11:23.108Z,24.92
2023-05-22T20:15:42.819Z,24.63
2023-05-22T20:20:00.761Z,23.30
2023-05-22T20:24:21.178Z,23.52
2023-05-22T20:28:38.641Z,26.92
2023-05-22T20:32:55.988Z,20.83
2023-05-22T20:37:13.695Z,20.75
2023-05-22T20:41:31.730Z,11.63
2023-05-22T20:45:49.153Z,18.03
2023-05-22T20:50:07.172Z,19.02
2023-05-22T20:54:24.614Z,19.37
2023-05-22T20:58:42.620Z,27.90
2023-05-22T21:03:10.259Z,27.37
2023-05-22T21:07:28.409Z,27.52
2023-05-22T21:11:45.828Z,25.30
2023-05-22T21:16:03.195Z,21.85
2023-05-22T21:20:20.533Z,18.98
2023-05-22T21:24:37.760Z,17.65
2023-05-22T21:28:55.114Z,17.42
2023-05-22T21:33:13.274Z,21.13
2023-05-22T21:37:31.470Z,27.65
2023-05-22T21:41:49.985Z,24.95
2023-05-22T21:46:07.555Z,17.42
2023-05-22T21:50:25.397Z,19.90
2023-05-22T21:54:42.738Z,13.25
2023-05-22T21:59:00.072Z,24.60
2023-05-22T22:03:17.718Z,16.98
2023-05-22T22:07:35.602Z,15.75
2023-05-22T22:11:53.018Z,18.75
2023-05-22T22:16:10.415Z,14.00
2023-05-22T22:24:57.133Z,15.05
2023-05-22T22:29:14.373Z,16.42
2023-05-22T22:33:32.826Z,13.05
2023-05-22T22:37:51.024Z,12.85
2023-05-22T22:42:08.701Z,13.57
2023-05-22T22:46:26.673Z,17.40
2023-05-22T22:50:44.176Z,16.10
2023-05-22T22:55:01.428Z,17.92
2023-05-22T22:59:19.167Z,19.20
2023-05-22T23:03:36.419Z,23.55
2023-05-22T23:07:53.810Z,24.88
2023-05-22T23:12:11.233Z,26.75
2023-05-22T23:16:28.525Z,23.60
2023-05-22T23:20:46.337Z,26.30
2023-05-22T23:25:03.732Z,24.17
2023-05-22T23:29:21.110Z,25.15
2023-05-22T23:33:39.162Z,24.98
2023-05-22T23:37:56.428Z,20.90
2023-05-22T23:42:13.930Z,27.08
2023-05-22T23:46:31.363Z,22.00
2023-05-22T23:50:48.864Z,20.45
2023-05-22T23:55:06.749Z,16.63
2023-05-22T23:59:24.239Z,25.13
